sensor_id;sensor_type;location;lat;lon;timestamp;P1;durP1;ratioP1;P2;durP2;ratioP2
7383;SDS011;3733;47.994;8.820;2024-01-07T00:00:19;12.17;;;7.63;;
7383;SDS011;3733;47.994;8.820;2024-01-07T00:02:45;6.27;;;4.63;;
7383;SDS011;3733;47.994;8.820;2024-01-07T00:05:10;5.57;;;4.00;;
7383;SDS011;3733;47.994;8.820;2024-01-07T00:07:36;6.97;;;4.57;;
7383;SDS011;3733;47.994;8.820;2024-01-07T00:10:01;9.77;;;6.03;;
7383;SDS011;3733;47.994;8.820;2024-01-07T00:12:27;7.63;;;5.60;;
7383;SDS011;3733;47.994;8.820;2024-01-07T00:14:53;7.83;;;5.30;;
7383;SDS011;3733;47.994;8.820;2024-01-07T00:17:19;7.50;;;5.60;;
7383;SDS011;3733;47.994;8.820;2024-01-07T00:19:44;7.50;;;5.20;;
7383;SDS011;3733;47.994;8.820;2024-01-07T00:22:10;10.40;;;5.10;;
7383;SDS011;3733;47.994;8.820;2024-01-07T00:24:35;6.23;;;4.80;;
7383;SDS011;3733;47.994;8.820;2024-01-07T00:27:01;5.93;;;4.00;;
7383;SDS011;3733;47.994;8.820;2024-01-07T00:29:26;4.60;;;4.03;;
7383;SDS011;3733;47.994;8.820;2024-01-07T00:31:52;3.63;;;3.30;;
7383;SDS011;3733;47.994;8.820;2024-01-07T00:34:17;3.97;;;3.37;;
7383;SDS011;3733;47.994;8.820;2024-01-07T00:36:43;3.90;;;3.40;;
7383;SDS011;3733;47.994;8.820;2024-01-07T00:39:09;4.57;;;3.40;;
7383;SDS011;3733;47.994;8.820;2024-01-07T00:41:34;4.23;;;3.67;;
7383;SDS011;3733;47.994;8.820;2024-01-07T00:44:00;6.00;;;3.77;;
7383;SDS011;3733;47.994;8.820;2024-01-07T00:46:25;5.93;;;4.20;;
7383;SDS011;3733;47.994;8.820;2024-01-07T00:48:51;11.57;;;4.20;;
7383;SDS011;3733;47.994;8.820;2024-01-07T00:51:16;4.30;;;3.43;;
7383;SDS011;3733;47.994;8.820;2024-01-07T00:53:42;4.20;;;3.60;;
7383;SDS011;3733;47.994;8.820;2024-01-07T00:56:08;5.57;;;4.10;;
7383;SDS011;3733;47.994;8.820;2024-01-07T00:58:33;5.00;;;3.70;;
7383;SDS011;3733;47.994;8.820;2024-01-07T01:01:00;5.63;;;3.77;;
7383;SDS011;3733;47.994;8.820;2024-01-07T01:03:26;5.57;;;3.67;;
7383;SDS011;3733;47.994;8.820;2024-01-07T01:05:52;5.90;;;4.27;;
7383;SDS011;3733;47.994;8.820;2024-01-07T01:08:17;7.17;;;4.90;;
7383;SDS011;3733;47.994;8.820;2024-01-07T01:10:43;6.80;;;4.90;;
7383;SDS011;3733;47.994;8.820;2024-01-07T01:13:08;6.23;;;4.33;;
7383;SDS011;3733;47.994;8.820;2024-01-07T01:15:34;6.93;;;4.37;;
7383;SDS011;3733;47.994;8.820;2024-01-07T01:18:00;8.43;;;4.40;;
7383;SDS011;3733;47.994;8.820;2024-01-07T01:20:26;5.60;;;4.77;;
7383;SDS011;3733;47.994;8.820;2024-01-07T01:22:51;5.97;;;4.50;;
7383;SDS011;3733;47.994;8.820;2024-01-07T01:25:17;5.30;;;4.13;;
7383;SDS011;3733;47.994;8.820;2024-01-07T01:27:42;8.33;;;4.80;;
7383;SDS011;3733;47.994;8.820;2024-01-07T01:30:09;5.87;;;4.80;;
7383;SDS011;3733;47.994;8.820;2024-01-07T01:32:35;6.53;;;4.90;;
7383;SDS011;3733;47.994;8.820;2024-01-07T01:35:01;4.60;;;3.87;;
7383;SDS011;3733;47.994;8.820;2024-01-07T01:37:27;4.57;;;3.80;;
7383;SDS011;3733;47.994;8.820;2024-01-07T01:39:52;4.57;;;4.07;;
7383;SDS011;3733;47.994;8.820;2024-01-07T01:42:18;5.90;;;4.30;;
7383;SDS011;3733;47.994;8.820;2024-01-07T01:44:43;6.70;;;4.60;;
7383;SDS011;3733;47.994;8.820;2024-01-07T01:47:11;4.50;;;3.90;;
7383;SDS011;3733;47.994;8.820;2024-01-07T01:49:36;5.10;;;3.80;;
7383;SDS011;3733;47.994;8.820;2024-01-07T01:52:03;5.13;;;3.67;;
7383;SDS011;3733;47.994;8.820;2024-01-07T01:54:29;3.73;;;3.23;;
7383;SDS011;3733;47.994;8.820;2024-01-07T01:56:55;5.30;;;3.57;;
7383;SDS011;3733;47.994;8.820;2024-01-07T01:59:21;5.00;;;4.07;;
7383;SDS011;3733;47.994;8.820;2024-01-07T02:01:47;5.03;;;3.93;;
7383;SDS011;3733;47.994;8.820;2024-01-07T02:04:13;4.00;;;3.20;;
7383;SDS011;3733;47.994;8.820;2024-01-07T02:06:40;5.80;;;3.63;;
7383;SDS011;3733;47.994;8.820;2024-01-07T02:09:06;5.30;;;4.17;;
7383;SDS011;3733;47.994;8.820;2024-01-07T02:11:31;5.67;;;4.10;;
7383;SDS011;3733;47.994;8.820;2024-01-07T02:13:57;6.07;;;3.90;;
7383;SDS011;3733;47.994;8.820;2024-01-07T02:16:22;5.33;;;4.17;;
7383;SDS011;3733;47.994;8.820;2024-01-07T02:18:48;5.17;;;3.80;;
7383;SDS011;3733;47.994;8.820;2024-01-07T02:21:14;5.00;;;3.63;;
7383;SDS011;3733;47.994;8.820;2024-01-07T02:23:40;5.27;;;3.80;;
7383;SDS011;3733;47.994;8.820;2024-01-07T02:26:06;5.30;;;4.03;;
7383;SDS011;3733;47.994;8.820;2024-01-07T02:28:32;5.60;;;3.47;;
7383;SDS011;3733;47.994;8.820;2024-01-07T02:30:58;6.00;;;4.17;;
7383;SDS011;3733;47.994;8.820;2024-01-07T02:33:24;5.93;;;4.07;;
7383;SDS011;3733;47.994;8.820;2024-01-07T02:35:50;6.10;;;4.30;;
7383;SDS011;3733;47.994;8.820;2024-01-07T02:38:16;9.93;;;4.60;;
7383;SDS011;3733;47.994;8.820;2024-01-07T02:40:41;10.33;;;5.07;;
7383;SDS011;3733;47.994;8.820;2024-01-07T02:43:07;7.00;;;4.83;;
7383;SDS011;3733;47.994;8.820;2024-01-07T02:45:33;4.90;;;3.97;;
7383;SDS011;3733;47.994;8.820;2024-01-07T02:47:59;11.10;;;4.20;;
7383;SDS011;3733;47.994;8.820;2024-01-07T02:50:24;11.00;;;5.20;;
7383;SDS011;3733;47.994;8.820;2024-01-07T02:52:50;5.73;;;4.20;;
7383;SDS011;3733;47.994;8.820;2024-01-07T02:55:16;7.90;;;4.77;;
7383;SDS011;3733;47.994;8.820;2024-01-07T02:57:41;7.30;;;5.00;;
7383;SDS011;3733;47.994;8.820;2024-01-07T03:00:07;5.20;;;4.37;;
7383;SDS011;3733;47.994;8.820;2024-01-07T03:02:33;7.87;;;5.50;;
7383;SDS011;3733;47.994;8.820;2024-01-07T03:04:59;6.57;;;4.63;;
7383;SDS011;3733;47.994;8.820;2024-01-07T03:07:24;5.80;;;4.30;;
7383;SDS011;3733;47.994;8.820;2024-01-07T03:09:50;6.10;;;4.57;;
7383;SDS011;3733;47.994;8.820;2024-01-07T03:12:16;5.30;;;4.10;;
7383;SDS011;3733;47.994;8.820;2024-01-07T03:14:42;7.13;;;4.80;;
7383;SDS011;3733;47.994;8.820;2024-01-07T03:17:09;6.00;;;4.27;;
7383;SDS011;3733;47.994;8.820;2024-01-07T03:19:35;7.07;;;4.90;;
7383;SDS011;3733;47.994;8.820;2024-01-07T03:22:02;8.37;;;5.20;;
7383;SDS011;3733;47.994;8.820;2024-01-07T03:24:28;7.17;;;4.20;;
7383;SDS011;3733;47.994;8.820;2024-01-07T03:26:54;7.63;;;5.20;;
7383;SDS011;3733;47.994;8.820;2024-01-07T03:29:19;10.33;;;5.33;;
7383;SDS011;3733;47.994;8.820;2024-01-07T03:31:45;7.93;;;5.23;;
7383;SDS011;3733;47.994;8.820;2024-01-07T03:34:11;5.87;;;4.30;;
7383;SDS011;3733;47.994;8.820;2024-01-07T03:36:36;6.47;;;4.47;;
7383;SDS011;3733;47.994;8.820;2024-01-07T03:39:02;9.60;;;5.40;;
7383;SDS011;3733;47.994;8.820;2024-01-07T03:41:27;6.80;;;4.80;;
7383;SDS011;3733;47.994;8.820;2024-01-07T03:43:53;7.53;;;5.03;;
7383;SDS011;3733;47.994;8.820;2024-01-07T03:46:18;7.27;;;4.93;;
7383;SDS011;3733;47.994;8.820;2024-01-07T03:48:44;9.07;;;5.00;;
7383;SDS011;3733;47.994;8.820;2024-01-07T03:51:10;9.50;;;5.17;;
7383;SDS011;3733;47.994;8.820;2024-01-07T03:53:36;6.27;;;4.40;;
7383;SDS011;3733;47.994;8.820;2024-01-07T03:56:01;6.50;;;4.63;;
7383;SDS011;3733;47.994;8.820;2024-01-07T03:58:27;8.17;;;5.00;;
7383;SDS011;3733;47.994;8.820;2024-01-07T04:00:53;12.87;;;4.67;;
7383;SDS011;3733;47.994;8.820;2024-01-07T04:03:19;7.00;;;4.43;;
7383;SDS011;3733;47.994;8.820;2024-01-07T04:05:44;5.77;;;3.73;;
7383;SDS011;3733;47.994;8.820;2024-01-07T04:08:10;6.93;;;4.00;;
7383;SDS011;3733;47.994;8.820;2024-01-07T04:10:36;6.23;;;4.80;;
7383;SDS011;3733;47.994;8.820;2024-01-07T04:13:02;7.10;;;4.87;;
7383;SDS011;3733;47.994;8.820;2024-01-07T04:15:29;5.10;;;4.00;;
7383;SDS011;3733;47.994;8.820;2024-01-07T04:17:55;7.40;;;5.00;;
7383;SDS011;3733;47.994;8.820;2024-01-07T04:20:20;5.97;;;4.40;;
7383;SDS011;3733;47.994;8.820;2024-01-07T04:22:46;7.30;;;5.07;;
7383;SDS011;3733;47.994;8.820;2024-01-07T04:25:12;7.17;;;4.20;;
7383;SDS011;3733;47.994;8.820;2024-01-07T04:27:38;8.93;;;5.00;;
7383;SDS011;3733;47.994;8.820;2024-01-07T04:30:04;7.43;;;4.77;;
7383;SDS011;3733;47.994;8.820;2024-01-07T04:32:30;8.47;;;5.40;;
7383;SDS011;3733;47.994;8.820;2024-01-07T04:34:56;8.40;;;4.60;;
7383;SDS011;3733;47.994;8.820;2024-01-07T04:37:22;7.63;;;4.77;;
7383;SDS011;3733;47.994;8.820;2024-01-07T04:39:48;8.20;;;5.40;;
7383;SDS011;3733;47.994;8.820;2024-01-07T04:42:14;6.97;;;5.00;;
7383;SDS011;3733;47.994;8.820;2024-01-07T04:44:40;7.13;;;5.40;;
7383;SDS011;3733;47.994;8.820;2024-01-07T04:47:22;8.27;;;4.90;;
7383;SDS011;3733;47.994;8.820;2024-01-07T04:49:50;8.17;;;5.37;;
7383;SDS011;3733;47.994;8.820;2024-01-07T04:52:15;7.07;;;4.73;;
7383;SDS011;3733;47.994;8.820;2024-01-07T04:54:41;6.93;;;4.80;;
7383;SDS011;3733;47.994;8.820;2024-01-07T04:57:06;7.63;;;4.87;;
7383;SDS011;3733;47.994;8.820;2024-01-07T04:59:32;7.57;;;4.87;;
7383;SDS011;3733;47.994;8.820;2024-01-07T05:01:58;6.97;;;4.77;;
7383;SDS011;3733;47.994;8.820;2024-01-07T05:04:23;7.60;;;5.13;;
7383;SDS011;3733;47.994;8.820;2024-01-07T05:06:49;8.57;;;5.30;;
7383;SDS011;3733;47.994;8.820;2024-01-07T05:09:15;8.60;;;4.80;;
7383;SDS011;3733;47.994;8.820;2024-01-07T05:11:40;7.07;;;4.73;;
7383;SDS011;3733;47.994;8.820;2024-01-07T05:14:06;5.10;;;4.17;;
7383;SDS011;3733;47.994;8.820;2024-01-07T05:16:31;7.47;;;4.20;;
7383;SDS011;3733;47.994;8.820;2024-01-07T05:18:57;6.43;;;4.73;;
7383;SDS011;3733;47.994;8.820;2024-01-07T05:21:22;9.30;;;4.90;;
7383;SDS011;3733;47.994;8.820;2024-01-07T05:23:48;7.73;;;4.40;;
7383;SDS011;3733;47.994;8.820;2024-01-07T05:26:14;8.63;;;4.97;;
7383;SDS011;3733;47.994;8.820;2024-01-07T05:28:39;5.77;;;4.53;;
7383;SDS011;3733;47.994;8.820;2024-01-07T05:31:13;5.80;;;4.70;;
7383;SDS011;3733;47.994;8.820;2024-01-07T05:33:45;6.53;;;4.00;;
7383;SDS011;3733;47.994;8.820;2024-01-07T05:36:14;5.50;;;4.40;;
7383;SDS011;3733;47.994;8.820;2024-01-07T05:38:43;7.33;;;4.40;;
7383;SDS011;3733;47.994;8.820;2024-01-07T05:41:08;6.00;;;4.23;;
7383;SDS011;3733;47.994;8.820;2024-01-07T05:43:35;8.30;;;3.47;;
7383;SDS011;3733;47.994;8.820;2024-01-07T05:46:01;6.50;;;4.60;;
7383;SDS011;3733;47.994;8.820;2024-01-07T05:48:26;6.03;;;3.97;;
7383;SDS011;3733;47.994;8.820;2024-01-07T05:50:52;5.10;;;3.73;;
7383;SDS011;3733;47.994;8.820;2024-01-07T05:53:18;5.67;;;4.23;;
7383;SDS011;3733;47.994;8.820;2024-01-07T05:55:43;6.27;;;4.63;;
7383;SDS011;3733;47.994;8.820;2024-01-07T05:58:09;6.80;;;4.30;;
7383;SDS011;3733;47.994;8.820;2024-01-07T06:00:35;5.13;;;4.00;;
7383;SDS011;3733;47.994;8.820;2024-01-07T06:03:00;5.83;;;4.00;;
7383;SDS011;3733;47.994;8.820;2024-01-07T06:05:26;4.97;;;3.77;;
7383;SDS011;3733;47.994;8.820;2024-01-07T06:07:52;5.47;;;3.60;;
7383;SDS011;3733;47.994;8.820;2024-01-07T06:10:18;4.40;;;3.80;;
7383;SDS011;3733;47.994;8.820;2024-01-07T06:12:43;5.90;;;4.30;;
7383;SDS011;3733;47.994;8.820;2024-01-07T06:15:09;5.13;;;4.20;;
7383;SDS011;3733;47.994;8.820;2024-01-07T06:17:34;3.90;;;3.50;;
7383;SDS011;3733;47.994;8.820;2024-01-07T06:20:00;6.17;;;4.07;;
7383;SDS011;3733;47.994;8.820;2024-01-07T06:22:26;4.17;;;3.43;;
7383;SDS011;3733;47.994;8.820;2024-01-07T06:24:51;5.43;;;3.70;;
7383;SDS011;3733;47.994;8.820;2024-01-07T06:27:17;4.63;;;3.57;;
7383;SDS011;3733;47.994;8.820;2024-01-07T06:29:42;5.30;;;4.03;;
7383;SDS011;3733;47.994;8.820;2024-01-07T06:32:08;6.80;;;4.00;;
7383;SDS011;3733;47.994;8.820;2024-01-07T06:34:35;5.30;;;4.10;;
7383;SDS011;3733;47.994;8.820;2024-01-07T06:37:00;9.17;;;4.13;;
7383;SDS011;3733;47.994;8.820;2024-01-07T06:39:26;5.13;;;4.00;;
7383;SDS011;3733;47.994;8.820;2024-01-07T06:41:52;5.73;;;4.00;;
7383;SDS011;3733;47.994;8.820;2024-01-07T06:44:18;6.03;;;4.13;;
7383;SDS011;3733;47.994;8.820;2024-01-07T06:46:43;5.57;;;4.67;;
7383;SDS011;3733;47.994;8.820;2024-01-07T06:49:09;5.93;;;4.50;;
7383;SDS011;3733;47.994;8.820;2024-01-07T06:51:35;6.60;;;4.30;;
7383;SDS011;3733;47.994;8.820;2024-01-07T06:54:00;6.20;;;4.03;;
7383;SDS011;3733;47.994;8.820;2024-01-07T06:56:26;8.00;;;5.73;;
7383;SDS011;3733;47.994;8.820;2024-01-07T06:58:52;5.20;;;4.00;;
7383;SDS011;3733;47.994;8.820;2024-01-07T07:01:19;6.33;;;4.60;;
7383;SDS011;3733;47.994;8.820;2024-01-07T07:03:46;6.70;;;4.30;;
7383;SDS011;3733;47.994;8.820;2024-01-07T07:06:12;10.40;;;4.60;;
7383;SDS011;3733;47.994;8.820;2024-01-07T07:08:37;6.03;;;4.03;;
7383;SDS011;3733;47.994;8.820;2024-01-07T07:11:03;4.90;;;3.97;;
7383;SDS011;3733;47.994;8.820;2024-01-07T07:13:29;6.60;;;4.10;;
7383;SDS011;3733;47.994;8.820;2024-01-07T07:15:54;6.40;;;4.37;;
7383;SDS011;3733;47.994;8.820;2024-01-07T07:18:20;9.23;;;4.77;;
7383;SDS011;3733;47.994;8.820;2024-01-07T07:20:46;7.00;;;4.57;;
7383;SDS011;3733;47.994;8.820;2024-01-07T07:23:12;6.10;;;4.30;;
7383;SDS011;3733;47.994;8.820;2024-01-07T07:25:38;6.53;;;4.67;;
7383;SDS011;3733;47.994;8.820;2024-01-07T07:28:04;9.33;;;5.30;;
7383;SDS011;3733;47.994;8.820;2024-01-07T07:30:30;8.30;;;5.10;;
7383;SDS011;3733;47.994;8.820;2024-01-07T07:32:55;8.17;;;5.40;;
7383;SDS011;3733;47.994;8.820;2024-01-07T07:35:21;7.13;;;4.27;;
7383;SDS011;3733;47.994;8.820;2024-01-07T07:37:47;6.57;;;5.03;;
7383;SDS011;3733;47.994;8.820;2024-01-07T07:40:12;5.97;;;4.53;;
7383;SDS011;3733;47.994;8.820;2024-01-07T07:42:38;7.93;;;5.73;;
7383;SDS011;3733;47.994;8.820;2024-01-07T07:45:04;7.70;;;5.10;;
7383;SDS011;3733;47.994;8.820;2024-01-07T07:47:30;8.00;;;6.23;;
7383;SDS011;3733;47.994;8.820;2024-01-07T07:49:56;7.57;;;5.30;;
7383;SDS011;3733;47.994;8.820;2024-01-07T07:52:22;6.80;;;5.57;;
7383;SDS011;3733;47.994;8.820;2024-01-07T07:54:50;8.13;;;5.23;;
7383;SDS011;3733;47.994;8.820;2024-01-07T07:57:16;7.43;;;5.00;;
7383;SDS011;3733;47.994;8.820;2024-01-07T07:59:42;4.93;;;4.10;;
7383;SDS011;3733;47.994;8.820;2024-01-07T08:02:08;8.53;;;4.97;;
7383;SDS011;3733;47.994;8.820;2024-01-07T08:04:33;6.67;;;4.70;;
7383;SDS011;3733;47.994;8.820;2024-01-07T08:06:59;7.60;;;4.70;;
7383;SDS011;3733;47.994;8.820;2024-01-07T08:09:25;7.37;;;4.50;;
7383;SDS011;3733;47.994;8.820;2024-01-07T08:11:51;4.77;;;4.27;;
7383;SDS011;3733;47.994;8.820;2024-01-07T08:14:17;6.10;;;4.10;;
7383;SDS011;3733;47.994;8.820;2024-01-07T08:16:42;6.70;;;3.90;;
7383;SDS011;3733;47.994;8.820;2024-01-07T08:19:08;6.10;;;4.70;;
7383;SDS011;3733;47.994;8.820;2024-01-07T08:21:34;5.40;;;3.80;;
7383;SDS011;3733;47.994;8.820;2024-01-07T08:24:00;4.87;;;4.00;;
7383;SDS011;3733;47.994;8.820;2024-01-07T08:26:25;7.30;;;4.10;;
7383;SDS011;3733;47.994;8.820;2024-01-07T08:28:51;4.83;;;3.87;;
7383;SDS011;3733;47.994;8.820;2024-01-07T08:31:17;4.43;;;3.67;;
7383;SDS011;3733;47.994;8.820;2024-01-07T08:33:43;5.00;;;3.87;;
7383;SDS011;3733;47.994;8.820;2024-01-07T08:36:08;4.43;;;4.03;;
7383;SDS011;3733;47.994;8.820;2024-01-07T08:38:34;5.30;;;4.27;;
7383;SDS011;3733;47.994;8.820;2024-01-07T08:41:00;3.70;;;3.37;;
7383;SDS011;3733;47.994;8.820;2024-01-07T08:43:26;5.60;;;3.70;;
7383;SDS011;3733;47.994;8.820;2024-01-07T08:45:51;3.30;;;3.00;;
7383;SDS011;3733;47.994;8.820;2024-01-07T08:48:17;3.50;;;3.20;;
7383;SDS011;3733;47.994;8.820;2024-01-07T08:50:43;3.47;;;3.10;;
7383;SDS011;3733;47.994;8.820;2024-01-07T08:53:08;4.53;;;3.53;;
7383;SDS011;3733;47.994;8.820;2024-01-07T08:55:34;4.30;;;3.10;;
7383;SDS011;3733;47.994;8.820;2024-01-07T08:57:59;3.90;;;3.43;;
7383;SDS011;3733;47.994;8.820;2024-01-07T09:00:25;3.27;;;2.97;;
7383;SDS011;3733;47.994;8.820;2024-01-07T09:02:52;4.10;;;3.67;;
7383;SDS011;3733;47.994;8.820;2024-01-07T09:05:18;3.63;;;3.30;;
7383;SDS011;3733;47.994;8.820;2024-01-07T09:07:43;3.40;;;3.10;;
7383;SDS011;3733;47.994;8.820;2024-01-07T09:10:09;3.20;;;2.90;;
7383;SDS011;3733;47.994;8.820;2024-01-07T09:12:36;4.40;;;3.60;;
7383;SDS011;3733;47.994;8.820;2024-01-07T09:15:02;3.83;;;3.53;;
7383;SDS011;3733;47.994;8.820;2024-01-07T09:17:29;4.23;;;3.40;;
7383;SDS011;3733;47.994;8.820;2024-01-07T09:19:56;3.23;;;2.97;;
7383;SDS011;3733;47.994;8.820;2024-01-07T09:22:21;3.67;;;3.37;;
7383;SDS011;3733;47.994;8.820;2024-01-07T09:24:47;4.00;;;3.60;;
7383;SDS011;3733;47.994;8.820;2024-01-07T09:27:13;3.50;;;3.20;;
7383;SDS011;3733;47.994;8.820;2024-01-07T09:29:39;5.60;;;3.80;;
7383;SDS011;3733;47.994;8.820;2024-01-07T09:32:04;4.67;;;3.37;;
7383;SDS011;3733;47.994;8.820;2024-01-07T09:34:30;6.30;;;4.80;;
7383;SDS011;3733;47.994;8.820;2024-01-07T09:36:56;4.13;;;3.73;;
7383;SDS011;3733;47.994;8.820;2024-01-07T09:39:21;5.47;;;4.10;;
7383;SDS011;3733;47.994;8.820;2024-01-07T09:41:47;4.10;;;3.70;;
7383;SDS011;3733;47.994;8.820;2024-01-07T09:44:13;4.70;;;3.93;;
7383;SDS011;3733;47.994;8.820;2024-01-07T09:46:39;4.60;;;3.80;;
7383;SDS011;3733;47.994;8.820;2024-01-07T09:49:06;5.20;;;4.33;;
7383;SDS011;3733;47.994;8.820;2024-01-07T09:51:32;6.60;;;4.03;;
7383;SDS011;3733;47.994;8.820;2024-01-07T09:54:02;5.37;;;4.50;;
7383;SDS011;3733;47.994;8.820;2024-01-07T09:56:42;4.97;;;3.83;;
7383;SDS011;3733;47.994;8.820;2024-01-07T09:59:11;4.80;;;3.70;;
7383;SDS011;3733;47.994;8.820;2024-01-07T10:01:40;4.80;;;3.90;;
7383;SDS011;3733;47.994;8.820;2024-01-07T10:04:06;6.50;;;4.53;;
7383;SDS011;3733;47.994;8.820;2024-01-07T10:06:32;4.83;;;4.30;;
7383;SDS011;3733;47.994;8.820;2024-01-07T10:08:58;6.93;;;4.53;;
7383;SDS011;3733;47.994;8.820;2024-01-07T10:11:24;4.17;;;3.77;;
7383;SDS011;3733;47.994;8.820;2024-01-07T10:13:49;6.27;;;4.53;;
7383;SDS011;3733;47.994;8.820;2024-01-07T10:16:18;5.03;;;4.33;;
7383;SDS011;3733;47.994;8.820;2024-01-07T10:18:43;4.53;;;3.67;;
7383;SDS011;3733;47.994;8.820;2024-01-07T10:21:09;5.30;;;4.00;;
7383;SDS011;3733;47.994;8.820;2024-01-07T10:23:35;6.63;;;3.70;;
7383;SDS011;3733;47.994;8.820;2024-01-07T10:26:00;5.27;;;4.73;;
7383;SDS011;3733;47.994;8.820;2024-01-07T10:28:27;5.30;;;4.57;;
7383;SDS011;3733;47.994;8.820;2024-01-07T10:30:53;4.10;;;3.70;;
7383;SDS011;3733;47.994;8.820;2024-01-07T10:33:19;5.57;;;4.40;;
7383;SDS011;3733;47.994;8.820;2024-01-07T10:35:48;6.47;;;4.30;;
7383;SDS011;3733;47.994;8.820;2024-01-07T10:38:18;4.03;;;3.50;;
7383;SDS011;3733;47.994;8.820;2024-01-07T10:40:46;5.40;;;3.90;;
7383;SDS011;3733;47.994;8.820;2024-01-07T10:43:15;5.10;;;4.10;;
7383;SDS011;3733;47.994;8.820;2024-01-07T10:45:42;5.10;;;4.60;;
7383;SDS011;3733;47.994;8.820;2024-01-07T10:48:13;6.03;;;4.37;;
7383;SDS011;3733;47.994;8.820;2024-01-07T10:50:41;5.00;;;4.30;;
7383;SDS011;3733;47.994;8.820;2024-01-07T10:53:10;4.47;;;4.07;;
7383;SDS011;3733;47.994;8.820;2024-01-07T10:55:44;5.03;;;4.10;;
7383;SDS011;3733;47.994;8.820;2024-01-07T10:58:22;5.40;;;4.20;;
7383;SDS011;3733;47.994;8.820;2024-01-07T11:00:49;5.87;;;5.27;;
7383;SDS011;3733;47.994;8.820;2024-01-07T11:03:28;6.13;;;4.70;;
7383;SDS011;3733;47.994;8.820;2024-01-07T11:08:44;5.20;;;4.70;;
7383;SDS011;3733;47.994;8.820;2024-01-07T11:11:21;7.60;;;5.20;;
7383;SDS011;3733;47.994;8.820;2024-01-07T11:13:51;6.90;;;4.80;;
7383;SDS011;3733;47.994;8.820;2024-01-07T11:16:50;5.30;;;4.50;;
7383;SDS011;3733;47.994;8.820;2024-01-07T11:19:09;6.67;;;4.60;;
7383;SDS011;3733;47.994;8.820;2024-01-07T11:21:37;6.30;;;4.60;;
7383;SDS011;3733;47.994;8.820;2024-01-07T11:24:03;6.93;;;4.60;;
7383;SDS011;3733;47.994;8.820;2024-01-07T11:26:29;6.10;;;4.73;;
7383;SDS011;3733;47.994;8.820;2024-01-07T11:28:56;7.30;;;4.90;;
7383;SDS011;3733;47.994;8.820;2024-01-07T11:34:21;7.93;;;5.40;;
7383;SDS011;3733;47.994;8.820;2024-01-07T11:37:11;5.10;;;4.37;;
7383;SDS011;3733;47.994;8.820;2024-01-07T11:39:38;5.90;;;4.90;;
7383;SDS011;3733;47.994;8.820;2024-01-07T11:42:06;10.00;;;5.07;;
7383;SDS011;3733;47.994;8.820;2024-01-07T11:44:35;10.20;;;4.67;;
7383;SDS011;3733;47.994;8.820;2024-01-07T11:47:04;6.00;;;4.70;;
7383;SDS011;3733;47.994;8.820;2024-01-07T11:49:32;7.57;;;5.03;;
7383;SDS011;3733;47.994;8.820;2024-01-07T11:51:58;7.77;;;5.50;;
7383;SDS011;3733;47.994;8.820;2024-01-07T11:54:24;6.80;;;5.10;;
7383;SDS011;3733;47.994;8.820;2024-01-07T11:56:50;8.23;;;5.43;;
7383;SDS011;3733;47.994;8.820;2024-01-07T11:59:16;9.00;;;5.30;;
7383;SDS011;3733;47.994;8.820;2024-01-07T12:01:41;5.63;;;4.90;;
7383;SDS011;3733;47.994;8.820;2024-01-07T12:04:07;5.97;;;4.30;;
7383;SDS011;3733;47.994;8.820;2024-01-07T12:06:34;9.07;;;5.13;;
7383;SDS011;3733;47.994;8.820;2024-01-07T12:09:00;8.33;;;5.60;;
7383;SDS011;3733;47.994;8.820;2024-01-07T12:11:26;6.27;;;4.60;;
7383;SDS011;3733;47.994;8.820;2024-01-07T12:13:52;6.70;;;4.80;;
7383;SDS011;3733;47.994;8.820;2024-01-07T12:16:18;6.43;;;4.77;;
7383;SDS011;3733;47.994;8.820;2024-01-07T12:18:43;6.27;;;4.93;;
7383;SDS011;3733;47.994;8.820;2024-01-07T12:21:09;7.80;;;5.10;;
7383;SDS011;3733;47.994;8.820;2024-01-07T12:23:35;7.33;;;4.80;;
7383;SDS011;3733;47.994;8.820;2024-01-07T12:26:07;9.80;;;5.27;;
7383;SDS011;3733;47.994;8.820;2024-01-07T12:28:34;6.87;;;4.57;;
7383;SDS011;3733;47.994;8.820;2024-01-07T12:30:59;6.13;;;4.47;;
7383;SDS011;3733;47.994;8.820;2024-01-07T12:33:26;7.47;;;5.37;;
7383;SDS011;3733;47.994;8.820;2024-01-07T12:35:54;6.27;;;4.40;;
7383;SDS011;3733;47.994;8.820;2024-01-07T12:38:26;9.17;;;5.80;;
7383;SDS011;3733;47.994;8.820;2024-01-07T12:40:52;7.47;;;5.13;;
7383;SDS011;3733;47.994;8.820;2024-01-07T12:43:18;6.93;;;5.13;;
7383;SDS011;3733;47.994;8.820;2024-01-07T12:45:45;7.23;;;4.77;;
7383;SDS011;3733;47.994;8.820;2024-01-07T12:48:11;6.00;;;4.53;;
7383;SDS011;3733;47.994;8.820;2024-01-07T12:50:37;6.10;;;4.40;;
7383;SDS011;3733;47.994;8.820;2024-01-07T12:53:03;6.40;;;4.43;;
7383;SDS011;3733;47.994;8.820;2024-01-07T12:55:28;8.43;;;5.40;;
7383;SDS011;3733;47.994;8.820;2024-01-07T12:57:54;6.83;;;5.23;;
7383;SDS011;3733;47.994;8.820;2024-01-07T13:00:20;6.93;;;4.27;;
7383;SDS011;3733;47.994;8.820;2024-01-07T13:02:46;9.63;;;5.33;;
7383;SDS011;3733;47.994;8.820;2024-01-07T13:05:12;7.43;;;5.03;;
7383;SDS011;3733;47.994;8.820;2024-01-07T13:07:38;9.07;;;5.37;;
7383;SDS011;3733;47.994;8.820;2024-01-07T13:10:04;8.90;;;5.00;;
7383;SDS011;3733;47.994;8.820;2024-01-07T13:12:31;7.90;;;5.10;;
7383;SDS011;3733;47.994;8.820;2024-01-07T13:14:56;9.10;;;5.17;;
7383;SDS011;3733;47.994;8.820;2024-01-07T13:17:22;7.27;;;5.20;;
7383;SDS011;3733;47.994;8.820;2024-01-07T13:19:48;8.20;;;5.10;;
7383;SDS011;3733;47.994;8.820;2024-01-07T13:22:13;8.20;;;5.03;;
7383;SDS011;3733;47.994;8.820;2024-01-07T13:24:39;6.20;;;5.00;;
7383;SDS011;3733;47.994;8.820;2024-01-07T13:27:06;6.93;;;4.63;;
7383;SDS011;3733;47.994;8.820;2024-01-07T13:29:33;6.30;;;5.10;;
7383;SDS011;3733;47.994;8.820;2024-01-07T13:32:00;9.57;;;5.63;;
7383;SDS011;3733;47.994;8.820;2024-01-07T13:34:25;7.37;;;4.90;;
7383;SDS011;3733;47.994;8.820;2024-01-07T13:36:51;8.13;;;5.10;;
7383;SDS011;3733;47.994;8.820;2024-01-07T13:39:17;9.47;;;5.60;;
7383;SDS011;3733;47.994;8.820;2024-01-07T13:41:42;9.63;;;5.90;;
7383;SDS011;3733;47.994;8.820;2024-01-07T13:44:09;8.83;;;6.03;;
7383;SDS011;3733;47.994;8.820;2024-01-07T13:46:43;8.73;;;6.20;;
7383;SDS011;3733;47.994;8.820;2024-01-07T13:49:10;6.93;;;5.00;;
7383;SDS011;3733;47.994;8.820;2024-01-07T13:51:36;10.10;;;5.43;;
7383;SDS011;3733;47.994;8.820;2024-01-07T13:54:02;9.10;;;6.40;;
7383;SDS011;3733;47.994;8.820;2024-01-07T13:56:28;8.97;;;5.80;;
7383;SDS011;3733;47.994;8.820;2024-01-07T13:58:54;8.37;;;5.60;;
7383;SDS011;3733;47.994;8.820;2024-01-07T14:01:21;13.93;;;6.30;;
7383;SDS011;3733;47.994;8.820;2024-01-07T14:03:46;9.13;;;5.13;;
7383;SDS011;3733;47.994;8.820;2024-01-07T14:06:12;9.77;;;5.07;;
7383;SDS011;3733;47.994;8.820;2024-01-07T14:08:38;6.80;;;5.27;;
7383;SDS011;3733;47.994;8.820;2024-01-07T14:11:03;9.80;;;5.40;;
7383;SDS011;3733;47.994;8.820;2024-01-07T14:13:32;7.77;;;5.60;;
7383;SDS011;3733;47.994;8.820;2024-01-07T14:15:57;8.50;;;5.10;;
7383;SDS011;3733;47.994;8.820;2024-01-07T14:18:23;6.97;;;4.60;;
7383;SDS011;3733;47.994;8.820;2024-01-07T14:20:48;7.27;;;5.00;;
7383;SDS011;3733;47.994;8.820;2024-01-07T14:23:14;9.00;;;5.90;;
7383;SDS011;3733;47.994;8.820;2024-01-07T14:25:40;7.47;;;5.30;;
7383;SDS011;3733;47.994;8.820;2024-01-07T14:28:06;9.93;;;6.07;;
7383;SDS011;3733;47.994;8.820;2024-01-07T14:30:32;9.90;;;4.97;;
7383;SDS011;3733;47.994;8.820;2024-01-07T14:32:58;8.27;;;5.87;;
7383;SDS011;3733;47.994;8.820;2024-01-07T14:35:24;6.83;;;5.13;;
7383;SDS011;3733;47.994;8.820;2024-01-07T14:37:51;8.37;;;5.30;;
7383;SDS011;3733;47.994;8.820;2024-01-07T14:40:18;6.50;;;4.60;;
7383;SDS011;3733;47.994;8.820;2024-01-07T14:42:43;7.50;;;5.03;;
7383;SDS011;3733;47.994;8.820;2024-01-07T14:45:09;9.37;;;4.67;;
7383;SDS011;3733;47.994;8.820;2024-01-07T14:47:35;6.40;;;4.60;;
7383;SDS011;3733;47.994;8.820;2024-01-07T14:50:00;8.60;;;5.40;;
7383;SDS011;3733;47.994;8.820;2024-01-07T14:52:27;7.10;;;5.20;;
7383;SDS011;3733;47.994;8.820;2024-01-07T14:54:53;7.03;;;5.20;;
7383;SDS011;3733;47.994;8.820;2024-01-07T14:57:18;5.60;;;4.20;;
7383;SDS011;3733;47.994;8.820;2024-01-07T14:59:44;9.40;;;5.30;;
7383;SDS011;3733;47.994;8.820;2024-01-07T15:02:10;5.73;;;4.43;;
7383;SDS011;3733;47.994;8.820;2024-01-07T15:04:35;6.40;;;4.70;;
7383;SDS011;3733;47.994;8.820;2024-01-07T15:07:01;6.67;;;4.47;;
7383;SDS011;3733;47.994;8.820;2024-01-07T15:09:27;5.57;;;4.10;;
7383;SDS011;3733;47.994;8.820;2024-01-07T15:11:53;6.53;;;4.17;;
7383;SDS011;3733;47.994;8.820;2024-01-07T15:14:20;6.23;;;4.30;;